sensor_id;sensor_type;location;lat;lon;timestamp;pressure;altitude;pressure_sealevel;temperature;humidity
16100;BME280;8154;50.830;12.082;2023-05-09T00:01:57;99964.88;;;24.58;34.47
16100;BME280;8154;50.830;12.082;2023-05-09T00:04:24;99965.25;;;24.55;34.68
16100;BME280;8154;50.830;12.082;2023-05-09T00:06:51;99964.50;;;24.61;34.37
16100;BME280;8154;50.830;12.082;2023-05-09T00:09:19;99961.44;;;24.64;34.74
16100;BME280;8154;50.830;12.082;2023-05-09T00:11:46;99955.19;;;24.57;34.64
16100;BME280;8154;50.830;12.082;2023-05-09T00:14:14;99952.91;;;24.54;34.88
16100;BME280;8154;50.830;12.082;2023-05-09T00:16:41;99954.19;;;24.58;34.53
16100;BME280;8154;50.830;12.082;2023-05-09T00:19:08;99952.59;;;24.64;34.51
16100;BME280;8154;50.830;12.082;2023-05-09T00:21:35;99947.44;;;24.62;34.30
16100;BME280;8154;50.830;12.082;2023-05-09T00:24:01;99953.44;;;24.64;34.71
16100;BME280;8154;50.830;12.082;2023-05-09T00:26:27;99950.03;;;24.56;34.49
16100;BME280;8154;50.830;12.082;2023-05-09T00:28:53;99949.59;;;24.52;34.52
16100;BME280;8154;50.830;12.082;2023-05-09T00:31:21;99948.41;;;24.55;34.58
16100;BME280;8154;50.830;12.082;2023-05-09T00:33:47;99939.63;;;24.61;34.66
16100;BME280;8154;50.830;12.082;2023-05-09T00:36:14;99940.56;;;24.53;34.47
16100;BME280;8154;50.830;12.082;2023-05-09T00:38:41;99933.94;;;24.49;34.54
16100;BME280;8154;50.830;12.082;2023-05-09T00:41:09;99938.09;;;24.52;34.56
16100;BME280;8154;50.830;12.082;2023-05-09T00:43:35;99939.81;;;24.59;34.68
16100;BME280;8154;50.830;12.082;2023-05-09T00:46:01;99939.94;;;24.51;34.61
16100;BME280;8154;50.830;12.082;2023-05-09T00:48:28;99942.78;;;24.50;34.60
16100;BME280;8154;50.830;12.082;2023-05-09T00:50:54;99935.81;;;24.49;34.51
16100;BME280;8154;50.830;12.082;2023-05-09T00:53:20;99924.16;;;24.56;34.38
16100;BME280;8154;50.830;12.082;2023-05-09T00:55:46;99932.44;;;24.61;34.30
16100;BME280;8154;50.830;12.082;2023-05-09T00:58:17;99931.41;;;24.62;34.54
16100;BME280;8154;50.830;12.082;2023-05-09T01:00:44;99936.22;;;24.52;34.41
16100;BME280;8154;50.830;12.082;2023-05-09T01:03:10;99934.31;;;24.46;34.74
16100;BME280;8154;50.830;12.082;2023-05-09T01:08:25;99923.50;;;24.54;34.46
16100;BME280;8154;50.830;12.082;2023-05-09T01:11:40;99920.91;;;24.61;34.37
16100;BME280;8154;50.830;12.082;2023-05-09T01:14:01;99925.81;;;24.57;34.48
16100;BME280;8154;50.830;12.082;2023-05-09T01:16:40;99927.59;;;24.50;34.76
16100;BME280;8154;50.830;12.082;2023-05-09T01:19:49;99920.78;;;24.48;34.50
16100;BME280;8154;50.830;12.082;2023-05-09T01:22:29;99922.88;;;24.52;34.29
16100;BME280;8154;50.830;12.082;2023-05-09T01:25:17;99925.53;;;24.52;34.29
16100;BME280;8154;50.830;12.082;2023-05-09T01:28:13;99922.13;;;24.58;34.41
16100;BME280;8154;50.830;12.082;2023-05-09T01:30:45;99923.44;;;24.48;34.47
16100;BME280;8154;50.830;12.082;2023-05-09T03:33:02;99878.72;;;24.35;34.45
16100;BME280;8154;50.830;12.082;2023-05-09T03:35:29;99880.13;;;24.31;34.47
16100;BME280;8154;50.830;12.082;2023-05-09T03:37:57;99879.88;;;24.26;34.74
16100;BME280;8154;50.830;12.082;2023-05-09T03:40:23;99871.59;;;24.21;34.59
16100;BME280;8154;50.830;12.082;2023-05-09T03:42:49;99881.84;;;24.17;34.70
16100;BME280;8154;50.830;12.082;2023-05-09T03:45:16;99882.66;;;24.18;34.74
16100;BME280;8154;50.830;12.082;2023-05-09T03:47:42;99880.13;;;24.31;34.40
16100;BME280;8154;50.830;12.082;2023-05-09T03:50:09;99880.25;;;24.23;34.64
16100;BME280;8154;50.830;12.082;2023-05-09T03:52:35;99877.97;;;24.20;34.48
16100;BME280;8154;50.830;12.082;2023-05-09T03:55:02;99879.19;;;24.17;34.75
16100;BME280;8154;50.830;12.082;2023-05-09T03:57:28;99889.56;;;24.27;34.53
16100;BME280;8154;50.830;12.082;2023-05-09T03:59:54;99886.22;;;24.25;34.38
16100;BME280;8154;50.830;12.082;2023-05-09T04:02:22;99882.03;;;24.16;34.38
16100;BME280;8154;50.830;12.082;2023-05-09T04:04:53;99878.53;;;24.15;34.76
16100;BME280;8154;50.830;12.082;2023-05-09T04:07:19;99878.41;;;24.23;34.38
16100;BME280;8154;50.830;12.082;2023-05-09T04:09:46;99875.28;;;24.20;34.63
16100;BME280;8154;50.830;12.082;2023-05-09T04:12:13;99877.13;;;24.19;34.48
16100;BME280;8154;50.830;12.082;2023-05-09T04:14:40;99870.31;;;24.17;34.53
16100;BME280;8154;50.830;12.082;2023-05-09T04:17:07;99878.72;;;24.14;34.81
16100;BME280;8154;50.830;12.082;2023-05-09T04:19:33;99877.06;;;24.13;34.95
16100;BME280;8154;50.830;12.082;2023-05-09T04:21:59;99875.09;;;24.21;34.78
16100;BME280;8154;50.830;12.082;2023-05-09T04:24:25;99873.00;;;24.17;34.55
16100;BME280;8154;50.830;12.082;2023-05-09T04:26:52;99869.28;;;24.18;34.65
16100;BME280;8154;50.830;12.082;2023-05-09T04:29:21;99872.81;;;24.18;34.65
16100;BME280;8154;50.830;12.082;2023-05-09T10:32:22;99473.66;;;25.01;28.60
16100;BME280;8154;50.830;12.082;2023-05-09T10:34:59;99463.19;;;24.99;28.83
16100;BME280;8154;50.830;12.082;2023-05-09T10:37:27;99467.91;;;25.04;28.53
16100;BME280;8154;50.830;12.082;2023-05-09T10:39:55;99466.06;;;25.04;28.89
16100;BME280;8154;50.830;12.082;2023-05-09T10:42:22;99461.31;;;25.06;28.85
16100;BME280;8154;50.830;12.082;2023-05-09T10:44:51;99453.50;;;25.05;28.85
16100;BME280;8154;50.830;12.082;2023-05-09T10:47:19;99454.13;;;25.07;29.07
16100;BME280;8154;50.830;12.082;2023-05-09T10:49:48;99446.94;;;25.07;28.98
16100;BME280;8154;50.830;12.082;2023-05-09T10:52:15;99430.88;;;25.07;28.88
16100;BME280;8154;50.830;12.082;2023-05-09T10:54:42;99439.13;;;25.06;29.04
16100;BME280;8154;50.830;12.082;2023-05-09T10:57:08;99430.06;;;25.07;28.92
16100;BME280;8154;50.830;12.082;2023-05-09T10:59:41;99436.25;;;25.07;29.00
16100;BME280;8154;50.830;12.082;2023-05-09T11:02:18;99428.00;;;25.09;29.24
16100;BME280;8154;50.830;12.082;2023-05-09T11:04:46;99415.84;;;25.13;29.05
16100;BME280;8154;50.830;12.082;2023-05-09T11:07:23;99411.97;;;25.09;29.01
16100;BME280;8154;50.830;12.082;2023-05-09T11:10:19;99406.00;;;25.13;29.06
16100;BME280;8154;50.830;12.082;2023-05-09T11:12:57;99398.38;;;25.10;29.41
16100;BME280;8154;50.830;12.082;2023-05-09T11:15:24;99392.00;;;25.11;29.12
16100;BME280;8154;50.830;12.082;2023-05-09T11:18:06;99385.00;;;25.10;29.45
16100;BME280;8154;50.830;12.082;2023-05-09T11:20:34;99379.66;;;25.10;29.28
16100;BME280;8154;50.830;12.082;2023-05-09T11:23:03;99383.56;;;25.08;29.50
16100;BME280;8154;50.830;12.082;2023-05-09T11:25:31;99378.19;;;25.08;29.39
16100;BME280;8154;50.830;12.082;2023-05-09T11:28:02;99368.34;;;25.08;29.43
16100;BME280;8154;50.830;12.082;2023-05-09T11:30:40;99368.34;;;25.08;29.39
16100;BME280;8154;50.830;12.082;2023-05-09T12:34:25;99252.31;;;25.09;30.37
16100;BME280;8154;50.830;12.082;2023-05-09T12:36:52;99246.16;;;25.09;30.31
16100;BME280;8154;50.830;12.082;2023-05-09T12:39:20;99247.56;;;25.11;30.15
16100;BME280;8154;50.830;12.082;2023-05-09T12:41:48;99240.38;;;25.12;30.18
16100;BME280;8154;50.830;12.082;2023-05-09T12:44:25;99227.22;;;25.10;30.52
16100;BME280;8154;50.830;12.082;2023-05-09T12:47:00;99224.56;;;25.10;30.22
16100;BME280;8154;50.830;12.082;2023-05-09T12:49:29;99226.81;;;25.13;30.01
16100;BME280;8154;50.830;12.082;2023-05-09T12:51:59;99212.59;;;25.13;30.32
16100;BME280;8154;50.830;12.082;2023-05-09T12:54:29;99215.69;;;25.16;30.06
16100;BME280;8154;50.830;12.082;2023-05-09T12:56:56;99202.13;;;25.11;30.11
16100;BME280;8154;50.830;12.082;2023-05-09T12:59:25;99203.34;;;25.15;30.17
16100;BME280;8154;50.830;12.082;2023-05-09T13:01:56;99210.75;;;25.13;30.35
16100;BME280;8154;50.830;12.082;2023-05-09T13:04:25;99199.00;;;25.14;30.49
16100;BME280;8154;50.830;12.082;2023-05-09T13:06:55;99189.56;;;25.12;30.60
16100;BME280;8154;50.830;12.082;2023-05-09T13:09:24;99194.31;;;25.10;30.45
16100;BME280;8154;50.830;12.082;2023-05-09T13:11:51;99192.47;;;25.10;30.60
16100;BME280;8154;50.830;12.082;2023-05-09T13:14:22;99195.53;;;25.14;30.53
16100;BME280;8154;50.830;12.082;2023-05-09T13:16:49;99187.31;;;25.15;30.62
16100;BME280;8154;50.830;12.082;2023-05-09T13:19:16;99184.63;;;25.15;30.62
16100;BME280;8154;50.830;12.082;2023-05-09T13:21:43;99179.50;;;25.14;30.51
16100;BME280;8154;50.830;12.082;2023-05-09T13:24:10;99175.16;;;25.13;30.64
16100;BME280;8154;50.830;12.082;2023-05-09T13:26:36;99173.53;;;25.12;30.40
16100;BME280;8154;50.830;12.082;2023-05-09T13:29:03;99166.72;;;25.16;30.59
16100;BME280;8154;50.830;12.082;2023-05-09T13:31:30;99155.00;;;25.17;30.60
16100;BME280;8154;50.830;12.082;2023-05-09T19:34:16;98910.75;;;25.23;31.46
16100;BME280;8154;50.830;12.082;2023-05-09T19:36:42;98908.50;;;25.20;31.53
16100;BME280;8154;50.830;12.082;2023-05-09T19:39:09;98905.63;;;25.21;31.24
16100;BME280;8154;50.830;12.082;2023-05-09T19:41:38;98899.84;;;25.24;31.43
16100;BME280;8154;50.830;12.082;2023-05-09T19:44:08;98906.81;;;25.25;31.59
16100;BME280;8154;50.830;12.082;2023-05-09T19:46:34;98903.31;;;25.25;31.24
16100;BME280;8154;50.830;12.082;2023-05-09T19:49:03;98893.88;;;25.22;31.66
16100;BME280;8154;50.830;12.082;2023-05-09T19:51:29;98894.94;;;25.21;31.67
16100;BME280;8154;50.830;12.082;2023-05-09T19:53:56;98890.97;;;25.24;31.38
16100;BME280;8154;50.830;12.082;2023-05-09T19:56:22;98894.25;;;25.26;31.25
16100;BME280;8154;50.830;12.082;2023-05-09T19:58:50;98885.63;;;25.24;31.59
16100;BME280;8154;50.830;12.082;2023-05-09T20:01:19;98892.03;;;25.23;31.28
16100;BME280;8154;50.830;12.082;2023-05-09T20:03:47;98888.09;;;25.25;31.57
16100;BME280;8154;50.830;12.082;2023-05-09T20:06:18;98886.47;;;25.24;31.59
16100;BME280;8154;50.830;12.082;2023-05-09T20:08:44;98883.78;;;25.24;31.49
16100;BME280;8154;50.830;12.082;2023-05-09T20:11:12;98878.88;;;25.21;31.46
16100;BME280;8154;50.830;12.082;2023-05-09T20:13:40;98884.00;;;25.23;31.38
16100;BME280;8154;50.830;12.082;2023-05-09T20:16:07;98880.06;;;25.25;31.64
16100;BME280;8154;50.830;12.082;2023-05-09T20:18:34;98881.09;;;25.24;31.21
16100;BME280;8154;50.830;12.082;2023-05-09T20:21:01;98886.91;;;25.21;31.68
16100;BME280;8154;50.830;12.082;2023-05-09T20:23:28;98876.19;;;25.21;31.48
16100;BME280;8154;50.830;12.082;2023-05-09T20:25:55;98882.72;;;25.25;31.61
16100;BME280;8154;50.830;12.082;2023-05-09T20:28:21;98879.00;;;25.26;31.55
16100;BME280;8154;50.830;12.082;2023-05-09T20:30:48;98877.00;;;25.22;31.71
16100;BME280;8154;50.830;12.082;2023-05-09T21:34:46;98849.81;;;25.25;31.61
16100;BME280;8154;50.830;12.082;2023-05-09T21:37:13;98844.25;;;25.26;31.34
16100;BME280;8154;50.830;12.082;2023-05-09T21:39:40;98845.50;;;25.24;31.65
16100;BME280;8154;50.830;12.082;2023-05-09T21:42:06;98843.28;;;25.21;31.64
16100;BME280;8154;50.830;12.082;2023-05-09T21:44:34;98843.66;;;25.24;31.33
16100;BME280;8154;50.830;12.082;2023-05-09T21:47:00;98835.41;;;25.26;31.25
16100;BME280;8154;50.830;12.082;2023-05-09T21:49:27;98840.38;;;25.22;31.61
16100;BME280;8154;50.830;12.082;2023-05-09T21:51:54;98837.94;;;25.21;31.47
16100;BME280;8154;50.830;12.082;2023-05-09T21:54:21;98829.69;;;25.22;31.58
16100;BME280;8154;50.830;12.082;2023-05-09T21:56:48;98834.38;;;25.27;31.71
16100;BME280;8154;50.830;12.082;2023-05-09T21:59:14;98837.50;;;25.24;31.55
16100;BME280;8154;50.830;12.082;2023-05-09T22:01:42;98837.72;;;25.22;31.66
16100;BME280;8154;50.830;12.082;2023-05-09T22:04:10;98835.03;;;25.22;31.71
16100;BME280;8154;50.830;12.082;2023-05-09T22:06:36;98836.22;;;25.26;31.57
16100;BME280;8154;50.830;12.082;2023-05-09T22:09:03;98837.28;;;25.25;31.62
16100;BME280;8154;50.830;12.082;2023-05-09T22:11:32;98840.38;;;25.22;31.64
16100;BME280;8154;50.830;12.082;2023-05-09T22:13:58;98842.84;;;25.24;31.63
16100;BME280;8154;50.830;12.082;2023-05-09T22:16:24;98846.91;;;25.26;31.67
16100;BME280;8154;50.830;12.082;2023-05-09T22:18:50;98839.72;;;25.27;31.58
16100;BME280;8154;50.830;12.082;2023-05-09T22:21:17;98836.22;;;25.26;31.52
16100;BME280;8154;50.830;12.082;2023-05-09T22:23:43;98840.78;;;25.26;31.67
16100;BME280;8154;50.830;12.082;2023-05-09T22:26:09;98832.38;;;25.22;31.49
16100;BME280;8154;50.830;12.082;2023-05-09T22:28:35;98838.97;;;25.20;31.72
16100;BME280;8154;50.830;12.082;2023-05-09T22:31:04;98837.31;;;25.19;31.53
16100;BME280;8154;50.830;12.082;2023-05-09T23:34:46;98795.59;;;25.18;31.50
16100;BME280;8154;50.830;12.082;2023-05-09T23:37:13;98794.53;;;25.19;31.46
16100;BME280;8154;50.830;12.082;2023-05-09T23:39:39;98790.25;;;25.18;31.72
16100;BME280;8154;50.830;12.082;2023-05-09T23:42:05;98782.66;;;25.15;31.64
16100;BME280;8154;50.830;12.082;2023-05-09T23:44:33;98785.94;;;25.17;31.77
16100;BME280;8154;50.830;12.082;2023-05-09T23:46:59;98775.59;;;25.20;31.56
16100;BME280;8154;50.830;12.082;2023-05-09T23:49:26;98782.00;;;25.19;31.81
16100;BME280;8154;50.830;12.082;2023-05-09T23:51:52;98784.28;;;25.16;31.58
16100;BME280;8154;50.830;12.082;2023-05-09T23:54:18;98784.91;;;25.18;31.83
16100;BME280;8154;50.830;12.082;2023-05-09T23:56:46;98781.78;;;25.21;31.50
16100;BME280;8154;50.830;12.082;2023-05-09T23:59:13;98789.41;;;25.17;31.61
